Time;durP1;ratioP1;P1;durP2;ratioP2;P2;SDS_P1;SDS_P2;PMS_P1;PMS_P2;Temp;Humidity;BMP_temperature;BMP_pressure;BME280_temperature;BME280_humidity;BME280_pressure;Samples;Min_cycle;Max_cycle;Signal;HPM_P1;HPM_P2
2022/09/26 00:00:36;;;;;;;1.63;0.60;;;10.40;70.20;;;;;;4114291;28;20038;-80
2022/09/26 00:02:37;;;;;;;5.53;0.80;;;10.40;70.60;;;;;;4128481;28;20030;-82
2022/09/26 00:04:39;;;;;;;3.70;0.85;;;10.40;70.50;;;;;;4127876;28;20450;-83
2022/09/26 00:06:41;;;;;;;5.60;0.90;;;10.40;70.80;;;;;;4127396;28;20110;-82
2022/09/26 00:08:43;;;;;;;3.63;0.93;;;10.50;70.60;;;;;;4127265;28;20250;-82
2022/09/26 00:10:44;;;;;;;5.38;0.90;;;10.50;70.70;;;;;;4123405;28;20034;-82
2022/09/26 00:12:45;;;;;;;4.45;0.70;;;10.50;70.80;;;;;;4127736;28;20029;-81
2022/09/26 00:14:45;;;;;;;2.50;0.93;;;10.50;71.20;;;;;;4125403;28;20058;-82
2022/09/26 00:16:52;;;;;;;3.50;0.85;;;10.50;71.00;;;;;;4127796;28;20037;-81
2022/09/26 00:18:55;;;;;;;2.42;0.90;;;10.50;71.40;;;;;;4139770;28;20400;-82
2022/09/26 00:21:07;;;;;;;4.45;0.60;;;10.60;71.20;;;;;;4127271;28;20154;-83
2022/09/26 00:23:08;;;;;;;4.07;0.85;;;10.50;71.20;;;;;;4129445;28;20313;-82
2022/09/26 00:25:09;;;;;;;4.32;1.13;;;10.50;71.00;;;;;;4128023;28;20034;-82
2022/09/26 00:27:09;;;;;;;2.05;0.85;;;10.50;71.40;;;;;;4123398;28;20036;-81
2022/09/26 00:29:11;;;;;;;4.40;0.70;;;10.50;71.60;;;;;;4128637;28;20613;-81
2022/09/26 00:31:15;;;;;;;5.20;0.93;;;10.50;71.40;;;;;;4127446;28;20058;-82
2022/09/26 00:33:16;;;;;;;3.10;0.90;;;10.60;71.50;;;;;;4128094;28;20046;-82
2022/09/26 00:35:16;;;;;;;3.90;1.00;;;10.50;71.40;;;;;;4110937;28;20035;-83
2022/09/26 00:37:17;;;;;;;5.30;1.00;;;10.60;71.50;;;;;;4132122;28;20030;-80
2022/09/26 00:39:17;;;;;;;2.10;0.68;;;10.50;71.60;;;;;;4128737;28;20034;-83
2022/09/26 00:41:19;;;;;;;3.05;0.90;;;10.60;71.70;;;;;;4125921;28;20030;-82
2022/09/26 00:43:32;;;;;;;4.22;0.63;;;10.50;71.60;;;;;;4121334;28;20748;-83
2022/09/26 00:45:32;;;;;;;3.63;1.10;;;10.60;71.80;;;;;;4131715;28;20117;-82
2022/09/26 00:47:43;;;;;;;2.25;0.70;;;10.60;71.80;;;;;;4128995;28;20030;-83
2022/09/26 00:49:45;;;;;;;3.25;0.93;;;10.70;71.90;;;;;;4126536;28;20018;-84
2022/09/26 00:51:54;;;;;;;2.08;0.65;;;10.60;71.80;;;;;;4108144;28;20023;-83
2022/09/26 00:53:55;;;;;;;3.05;0.73;;;10.60;71.90;;;;;;4128092;28;20034;-84
2022/09/26 00:56:14;;;;;;;2.88;0.60;;;10.60;71.80;;;;;;4126974;28;20148;-82
2022/09/26 00:58:20;;;;;;;2.13;0.73;;;10.60;72.00;;;;;;4127282;28;20041;-83
2022/09/26 01:00:22;;;;;;;4.53;0.80;;;10.60;71.90;;;;;;4124417;28;20459;-82
2022/09/26 01:02:24;;;;;;;2.35;0.80;;;10.60;72.00;;;;;;4127619;28;20106;-83
2022/09/26 01:04:27;;;;;;;2.88;0.60;;;10.70;72.10;;;;;;4125909;28;20033;-84
2022/09/26 01:06:28;;;;;;;3.50;0.82;;;10.60;72.10;;;;;;4127296;28;20133;-83
2022/09/26 01:08:35;;;;;;;8.10;0.93;;;10.70;72.20;;;;;;4112057;28;20042;-82
2022/09/26 01:10:36;;;;;;;4.60;0.73;;;10.60;72.10;;;;;;4143472;28;20582;-82
2022/09/26 01:12:37;;;;;;;6.13;0.90;;;10.60;72.00;;;;;;4129635;28;20524;-82
2022/09/26 01:14:40;;;;;;;1.83;0.65;;;10.60;72.10;;;;;;4128667;28;20886;-83
2022/09/26 01:16:47;;;;;;;7.53;0.77;;;10.60;72.10;;;;;;4130248;28;20156;-83
2022/09/26 01:18:48;;;;;;;4.97;0.65;;;10.70;72.30;;;;;;4112548;28;20745;-84
2022/09/26 01:21:08;;;;;;;3.97;0.60;;;10.60;72.20;;;;;;4126844;28;20022;-82
2022/09/26 01:23:30;;;;;;;5.35;0.90;;;10.70;72.50;;;;;;4128246;28;20626;-83
2022/09/26 01:26:22;;;;;;;8.00;0.80;;;10.70;72.20;;;;;;4133473;28;20493;-83
2022/09/26 01:28:41;;;;;;;8.05;1.00;;;10.70;72.40;;;;;;4091257;28;20052;-84
2022/09/26 01:31:01;;;;;;;2.25;0.68;;;10.70;72.20;;;;;;4115744;28;20046;-83
2022/09/26 01:33:11;;;;;;;4.28;0.63;;;10.70;72.10;;;;;;4134244;28;20030;-82
2022/09/26 01:35:35;;;;;;;4.53;0.80;;;10.70;72.20;;;;;;4142146;28;20027;-82
2022/09/26 01:37:42;;;;;;;;;;;10.70;72.30;;;;;;4138483;28;20031;-84
2022/09/26 01:40:08;;;;;;;3.65;0.50;;;10.70;72.60;;;;;;4132504;28;19945;-82
2022/09/26 01:42:31;;;;;;;4.65;0.80;;;10.70;72.10;;;;;;4145656;28;20538;-83
2022/09/26 01:44:46;;;;;;;2.20;0.60;;;10.70;72.10;;;;;;4130278;28;20376;-83
2022/09/26 01:46:47;;;;;;;6.95;0.95;;;10.70;72.10;;;;;;4130539;28;20036;-82
2022/09/26 01:48:57;;;;;;;3.38;0.60;;;10.70;72.10;;;;;;4115578;28;20034;-83
2022/09/26 01:51:11;;;;;;;2.83;0.60;;;10.70;72.20;;;;;;4143356;28;20506;-83
2022/09/26 01:53:26;;;;;;;3.97;0.65;;;10.70;72.50;;;;;;4131742;28;20057;-84
2022/09/26 01:55:34;;;;;;;6.80;0.65;;;10.70;72.30;;;;;;4130955;28;20096;-84
2022/09/26 01:57:50;;;;;;;3.17;0.70;;;10.70;72.40;;;;;;4132784;28;20022;-83
2022/09/26 01:59:55;;;;;;;3.55;0.73;;;10.80;72.60;;;;;;4134335;28;20034;-83
2022/09/26 02:02:01;;;;;;;4.43;0.70;;;10.80;72.60;;;;;;4127978;28;20026;-83
2022/09/26 02:04:09;;;;;;;1.83;0.90;;;10.80;72.60;;;;;;4130479;28;20045;-81
2022/09/26 02:06:41;;;;;;;5.68;0.70;;;10.80;72.80;;;;;;4130365;28;20026;-81
2022/09/26 02:08:56;;;;;;;5.28;1.00;;;10.80;72.80;;;;;;4134901;28;20508;-81
2022/09/26 02:11:11;;;;;;;5.45;1.00;;;10.80;73.20;;;;;;4127397;28;20122;-82
2022/09/26 02:13:28;;;;;;;5.47;1.00;;;10.80;73.00;;;;;;4126784;28;20101;-83
2022/09/26 02:15:33;;;;;;;2.03;0.60;;;10.80;73.20;;;;;;4125724;28;20061;-81
2022/09/26 02:17:45;;;;;;;4.13;0.80;;;10.80;73.10;;;;;;4147936;28;20033;-83
2022/09/26 02:20:00;;;;;;;7.10;0.77;;;10.80;73.20;;;;;;4129278;28;20030;-83
2022/09/26 02:22:01;;;;;;;4.40;0.77;;;10.80;73.00;;;;;;4128523;28;20050;-82
2022/09/26 02:24:01;;;;;;;5.55;1.35;;;10.90;73.10;;;;;;4127429;28;20057;-82
2022/09/26 02:26:02;;;;;;;2.45;0.70;;;10.80;73.30;;;;;;4127305;28;20042;-83
2022/09/26 02:28:04;;;;;;;5.05;0.90;;;10.80;73.50;;;;;;4127237;28;20022;-82
2022/09/26 02:30:05;;;;;;;4.28;0.80;;;10.80;73.40;;;;;;4127142;28;20031;-83
2022/09/26 02:32:14;;;;;;;5.78;0.98;;;10.80;73.60;;;;;;4130874;28;20034;-83
2022/09/26 02:34:15;;;;;;;4.45;1.00;;;10.90;73.80;;;;;;4143309;28;20032;-84
2022/09/26 02:36:18;;;;;;;4.45;0.90;;;10.80;73.70;;;;;;4112151;28;20059;-82
2022/09/26 02:38:20;;;;;;;2.60;0.60;;;10.80;73.90;;;;;;4128465;28;20053;-83
2022/09/26 02:40:29;;;;;;;8.73;1.00;;;10.80;73.70;;;;;;4123479;28;20030;-83
2022/09/26 02:42:39;;;;;;;4.45;0.82;;;10.80;73.90;;;;;;4130779;28;20034;-84
2022/09/26 02:45:15;;;;;;;3.88;0.90;;;10.80;73.90;;;;;;4127065;28;20030;-80
2022/09/26 02:47:22;;;;;;;6.10;0.60;;;10.80;74.00;;;;;;4098627;28;20413;-82
2022/09/26 02:49:34;;;;;;;4.22;0.70;;;10.80;74.10;;;;;;4128981;28;20104;-83
2022/09/26 02:51:53;;;;;;;6.20;1.13;;;10.80;74.40;;;;;;4133533;28;20089;-83
2022/09/26 02:53:53;;;;;;;3.95;0.82;;;10.80;74.40;;;;;;4147230;28;20026;-84
2022/09/26 02:56:15;;;;;;;6.75;1.00;;;10.80;74.30;;;;;;4130078;28;20038;-83
2022/09/26 02:58:38;;;;;;;2.20;0.70;;;10.80;74.50;;;;;;4131079;28;20097;-83
2022/09/26 03:00:52;;;;;;;2.05;0.60;;;10.80;74.60;;;;;;4146951;28;20049;-81
2022/09/26 03:03:06;;;;;;;7.50;0.80;;;10.80;74.60;;;;;;4130792;28;20022;-83
2022/09/26 03:05:15;;;;;;;2.72;1.00;;;10.80;74.60;;;;;;4128382;28;20052;-82
2022/09/26 03:07:24;;;;;;;8.40;0.93;;;10.80;74.80;;;;;;4125398;28;20520;-81
2022/09/26 03:09:28;;;;;;;4.25;1.10;;;10.80;74.80;;;;;;4129729;28;20106;-83
2022/09/26 03:11:30;;;;;;;2.90;1.05;;;10.80;74.70;;;;;;4127727;28;21385;-83
2022/09/26 03:13:36;;;;;;;3.60;0.75;;;10.90;75.00;;;;;;4128399;28;20518;-84
2022/09/26 03:15:40;;;;;;;7.53;1.45;;;10.80;74.90;;;;;;4129402;28;20030;-83
2022/09/26 03:17:46;;;;;;;4.07;1.00;;;10.90;75.00;;;;;;4127830;28;20041;-83
2022/09/26 03:20:05;;;;;;;4.82;1.20;;;10.90;75.10;;;;;;4129966;28;20045;-82
2022/09/26 03:22:07;;;;;;;5.18;0.90;;;10.90;75.30;;;;;;4128093;28;20069;-82
2022/09/26 03:24:08;;;;;;;2.67;1.20;;;10.90;75.20;;;;;;4127857;28;20030;-83
2022/09/26 03:26:13;;;;;;;4.60;1.23;;;10.90;75.20;;;;;;4129681;28;20023;-84
2022/09/26 03:28:13;;;;;;;4.53;1.40;;;10.90;75.30;;;;;;4127109;28;20035;-84
2022/09/26 03:30:16;;;;;;;2.47;1.15;;;10.90;75.20;;;;;;4124936;28;20101;-80
2022/09/26 03:32:16;;;;;;;5.15;1.30;;;10.90;75.30;;;;;;4128254;28;20041;-80
2022/09/26 03:34:17;;;;;;;4.55;1.50;;;10.90;75.50;;;;;;4130336;28;20054;-81
2022/09/26 03:36:21;;;;;;;4.38;1.50;;;11.10;75.40;;;;;;4111254;28;20038;-84
2022/09/26 03:38:22;;;;;;;5.35;1.75;;;10.90;75.30;;;;;;4127326;28;20034;-83
2022/09/26 03:40:23;;;;;;;6.53;1.40;;;10.90;75.30;;;;;;4140956;28;20036;-82
2022/09/26 03:42:23;;;;;;;5.07;1.55;;;10.90;75.30;;;;;;4126190;28;20022;-83
2022/09/26 03:44:24;;;;;;;2.97;1.10;;;11.10;75.50;;;;;;4133385;28;20042;-84
2022/09/26 03:46:25;;;;;;;5.10;1.50;;;11.00;75.50;;;;;;4130815;28;20037;-83
2022/09/26 03:48:25;;;;;;;3.42;1.27;;;11.00;75.50;;;;;;4129914;28;20033;-82
2022/09/26 03:50:26;;;;;;;7.10;1.38;;;11.10;75.50;;;;;;4129958;28;20031;-82
2022/09/26 03:52:28;;;;;;;4.40;1.40;;;11.00;75.50;;;;;;4131762;28;20029;-82
2022/09/26 03:54:29;;;;;;;6.82;1.33;;;11.00;75.60;;;;;;4133846;28;20038;-84
2022/09/26 03:56:29;;;;;;;5.20;1.40;;;11.00;75.50;;;;;;4131743;28;20204;-82
2022/09/26 03:58:30;;;;;;;6.88;1.30;;;11.00;75.60;;;;;;4116255;28;20023;-82
2022/09/26 04:00:31;;;;;;;4.78;1.30;;;11.00;75.70;;;;;;4133104;28;20094;-84
2022/09/26 04:02:32;;;;;;;4.70;1.23;;;11.00;75.70;;;;;;4128512;28;20034;-82
2022/09/26 04:04:32;;;;;;;6.28;1.27;;;11.00;75.80;;;;;;4129735;28;20030;-83
2022/09/26 04:06:33;;;;;;;4.53;1.30;;;11.00;75.70;;;;;;4151974;28;20573;-83
2022/09/26 04:08:36;;;;;;;3.85;1.52;;;10.90;76.40;;;;;;4161548;28;20014;-81
2022/09/26 04:10:37;;;;;;;6.10;1.35;;;11.00;75.60;;;;;;4131099;28;20018;-82
2022/09/26 04:12:39;;;;;;;8.90;1.60;;;11.00;75.70;;;;;;4129005;28;20116;-84
2022/09/26 04:14:42;;;;;;;4.78;1.27;;;11.00;75.70;;;;;;4132988;28;20105;-80
2022/09/26 04:16:43;;;;;;;9.27;1.70;;;11.00;75.60;;;;;;4126474;28;20224;-82
2022/09/26 04:18:44;;;;;;;4.05;1.00;;;11.00;75.70;;;;;;4133030;28;20118;-83
2022/09/26 04:20:44;;;;;;;6.40;1.13;;;11.00;75.70;;;;;;4132058;28;20039;-82
2022/09/26 04:22:45;;;;;;;6.10;1.40;;;11.00;75.60;;;;;;4128565;28;20062;-82
2022/09/26 04:24:45;;;;;;;3.35;1.13;;;11.00;75.50;;;;;;4130816;28;20499;-83
2022/09/26 04:26:46;;;;;;;7.47;1.13;;;11.00;75.60;;;;;;4127830;28;20015;-83
2022/09/26 04:28:48;;;;;;;7.95;1.40;;;11.00;75.50;;;;;;4119587;28;20038;-83
2022/09/26 04:30:49;;;;;;;4.93;1.42;;;11.10;75.50;;;;;;4130438;28;20028;-82
2022/09/26 04:32:49;;;;;;;8.00;1.10;;;11.10;75.50;;;;;;4127617;28;21655;-82
2022/09/26 04:34:50;;;;;;;4.43;1.00;;;11.00;75.40;;;;;;4126365;28;20086;-83
2022/09/26 04:36:51;;;;;;;7.70;1.40;;;11.00;75.40;;;;;;4130272;28;20037;-83
2022/09/26 04:38:52;;;;;;;3.47;1.00;;;11.00;75.30;;;;;;4130014;28;20144;-83
2022/09/26 04:40:53;;;;;;;8.07;0.93;;;10.90;75.20;;;;;;4129944;28;20034;-82
2022/09/26 04:42:53;;;;;;;5.65;1.20;;;11.00;75.50;;;;;;4132202;28;20026;-84
2022/09/26 04:44:55;;;;;;;4.80;1.10;;;11.00;75.30;;;;;;4130679;28;20018;-83
2022/09/26 04:46:55;;;;;;;3.97;1.10;;;11.00;75.30;;;;;;4132718;28;20034;-83
2022/09/26 04:48:58;;;;;;;4.22;1.15;;;11.00;75.40;;;;;;4150679;28;20121;-83
2022/09/26 04:51:02;;;;;;;5.97;1.25;;;10.90;75.20;;;;;;4131603;28;20389;-82
2022/09/26 04:53:05;;;;;;;7.13;1.25;;;10.90;75.30;;;;;;4130001;28;20030;-84
2022/09/26 04:55:06;;;;;;;8.40;1.50;;;10.90;75.40;;;;;;4134392;28;20034;-82
2022/09/26 04:57:06;;;;;;;6.60;1.52;;;10.90;75.90;;;;;;4147753;28;20076;-81
2022/09/26 04:59:07;;;;;;;6.13;1.50;;;10.90;75.10;;;;;;4131249;28;20044;-83
2022/09/26 05:01:13;;;;;;;7.45;1.23;;;10.90;75.40;;;;;;4130293;28;20070;-82
2022/09/26 05:03:15;;;;;;;5.35;1.40;;;10.90;75.20;;;;;;4128810;28;20037;-82
2022/09/26 05:05:16;;;;;;;4.47;1.30;;;10.90;75.30;;;;;;4130532;28;20194;-83
2022/09/26 05:07:18;;;;;;;6.82;1.23;;;10.90;75.20;;;;;;4131745;28;20038;-83
2022/09/26 05:09:19;;;;;;;6.10;1.52;;;11.00;75.30;;;;;;4129051;28;20026;-82
2022/09/26 05:11:20;;;;;;;8.43;1.50;;;11.00;75.30;;;;;;4124849;28;20022;-83
2022/09/26 05:13:24;;;;;;;6.88;1.55;;;10.80;75.40;;;;;;4129769;28;20031;-83
2022/09/26 05:15:24;;;;;;;3.50;1.10;;;10.80;75.30;;;;;;4127169;28;20030;-83
2022/09/26 05:17:25;;;;;;;7.00;1.70;;;10.80;75.20;;;;;;4137960;28;20081;-83
2022/09/26 05:19:26;;;;;;;6.43;1.30;;;10.90;75.60;;;;;;4127565;28;20571;-84
2022/09/26 05:21:27;;;;;;;6.30;1.58;;;10.80;75.50;;;;;;4130006;28;20719;-83
2022/09/26 05:28:06;;;;;;;6.72;1.35;;;10.80;75.40;;;;;;4128107;28;20047;-83
2022/09/26 05:30:07;;;;;;;6.88;1.60;;;10.80;75.40;;;;;;4131990;28;20045;-81
2022/09/26 05:32:09;;;;;;;6.80;1.30;;;10.80;75.50;;;;;;4145244;23;20056;-83
2022/09/26 05:34:11;;;;;;;9.80;1.42;;;10.80;75.50;;;;;;4131829;28;20680;-82
2022/09/26 05:36:12;;;;;;;4.35;1.20;;;10.80;75.50;;;;;;4133461;28;20034;-84
2022/09/26 05:38:13;;;;;;;8.55;1.38;;;10.80;75.50;;;;;;4125358;28;20027;-84
2022/09/26 05:42:33;;;;;;;5.63;1.42;;;10.80;75.60;;;;;;4118210;28;20137;-83
2022/09/26 05:44:33;;;;;;;5.70;1.20;;;10.80;75.60;;;;;;4134543;28;20415;-83
2022/09/26 05:46:37;;;;;;;9.43;1.42;;;10.90;75.70;;;;;;4134694;28;20062;-84
2022/09/26 05:48:38;;;;;;;4.90;1.70;;;10.80;75.80;;;;;;4134784;28;20027;-83
2022/09/26 05:50:39;;;;;;;6.88;1.60;;;10.80;75.80;;;;;;4120505;28;20114;-84
2022/09/26 05:52:39;;;;;;;7.50;1.80;;;10.80;75.80;;;;;;4135823;28;20515;-84
2022/09/26 05:54:40;;;;;;;4.03;1.33;;;10.80;75.80;;;;;;4135257;28;20034;-83
2022/09/26 05:56:41;;;;;;;5.20;1.63;;;10.80;75.80;;;;;;4119437;28;20035;-83
2022/09/26 05:58:42;;;;;;;5.75;1.40;;;10.80;75.80;;;;;;4119558;28;20027;-84
2022/09/26 06:00:43;;;;;;;5.68;1.50;;;10.70;75.70;;;;;;4116717;28;20034;-84
2022/09/26 06:02:45;;;;;;;8.77;1.75;;;10.80;75.80;;;;;;4137626;28;20508;-83
2022/09/26 06:04:46;;;;;;;7.68;1.67;;;10.90;76.00;;;;;;4141499;28;20041;-86
2022/09/26 06:06:47;;;;;;;3.45;1.33;;;10.80;75.90;;;;;;4123406;28;20035;-84
2022/09/26 06:08:48;;;;;;;6.25;1.20;;;10.90;76.00;;;;;;4136840;28;20096;-83
2022/09/26 06:10:48;;;;;;;5.88;1.40;;;10.80;76.00;;;;;;4121494;28;20027;-84
2022/09/26 06:12:49;;;;;;;10.20;1.92;;;10.80;75.90;;;;;;4120515;28;20023;-82
2022/09/26 06:14:51;;;;;;;8.13;1.60;;;10.90;76.00;;;;;;4123558;28;20031;-83
2022/09/26 06:16:52;;;;;;;6.95;1.45;;;10.90;76.00;;;;;;4122390;28;20031;-83
2022/09/26 06:18:54;;;;;;;7.47;1.33;;;10.80;76.00;;;;;;4135426;28;20400;-83
2022/09/26 06:20:55;;;;;;;6.63;1.40;;;10.80;76.20;;;;;;4139258;28;20064;-83
2022/09/26 06:22:56;;;;;;;4.57;1.70;;;10.90;76.10;;;;;;4120876;28;20026;-83
2022/09/26 06:24:57;;;;;;;6.68;1.48;;;10.90;76.20;;;;;;4137195;28;20062;-85
2022/09/26 06:26:58;;;;;;;10.75;2.10;;;10.90;76.20;;;;;;4122553;28;20019;-83
2022/09/26 06:28:59;;;;;;;4.45;1.58;;;10.90;76.10;;;;;;4139056;28;20037;-82
2022/09/26 06:31:07;;;;;;;5.38;2.58;;;10.90;76.10;;;;;;4106345;29;20039;-83
2022/09/26 06:33:08;;;;;;;7.45;1.65;;;11.00;76.10;;;;;;4140469;28;20058;-83
2022/09/26 06:35:08;;;;;;;6.55;1.60;;;10.90;76.00;;;;;;4139186;28;20495;-81
2022/09/26 06:37:09;;;;;;;3.75;1.40;;;11.00;76.10;;;;;;4136671;28;20041;-83
2022/09/26 06:39:10;;;;;;;6.60;1.73;;;10.90;75.90;;;;;;4139499;28;20086;-85
2022/09/26 06:41:14;;;;;;;5.45;1.48;;;11.00;76.00;;;;;;4126632;28;20041;-84
2022/09/26 06:43:15;;;;;;;3.92;1.70;;;11.00;76.10;;;;;;4139694;28;20046;-82
2022/09/26 06:45:16;;;;;;;6.65;1.10;;;11.00;76.00;;;;;;4100712;29;20612;-84
2022/09/26 06:47:16;;;;;;;7.68;1.55;;;10.90;75.90;;;;;;4138147;28;20554;-83
2022/09/26 06:49:17;;;;;;;6.97;1.33;;;11.00;76.00;;;;;;4138936;28;20046;-83
2022/09/26 06:51:18;;;;;;;5.68;1.40;;;11.10;76.00;;;;;;4138336;28;20490;-82
2022/09/26 06:53:20;;;;;;;8.77;1.60;;;11.10;76.00;;;;;;4129562;28;20027;-83
2022/09/26 06:55:21;;;;;;;5.55;1.38;;;11.00;75.80;;;;;;4122514;28;20036;-85
2022/09/26 06:57:22;;;;;;;15.68;1.83;;;11.00;76.00;;;;;;4136134;28;20476;-83
2022/09/26 06:59:22;;;;;;;4.47;1.20;;;11.00;75.90;;;;;;4137923;28;20101;-83
2022/09/26 07:01:23;;;;;;;6.38;1.33;;;11.10;76.00;;;;;;4122968;28;20043;-84
2022/09/26 07:03:25;;;;;;;4.25;1.10;;;11.20;76.10;;;;;;4124671;28;20018;-84
2022/09/26 07:05:26;;;;;;;5.32;1.45;;;11.10;76.00;;;;;;4131338;28;20058;-85
2022/09/26 07:07:28;;;;;;;4.65;1.25;;;11.10;76.10;;;;;;4119569;28;20023;-84
2022/09/26 07:09:28;;;;;;;7.72;1.30;;;11.20;76.10;;;;;;4136573;28;20558;-83
2022/09/26 07:11:29;;;;;;;11.02;1.55;;;11.10;76.10;;;;;;4137193;28;20030;-84
2022/09/26 07:13:30;;;;;;;5.90;1.50;;;11.20;76.20;;;;;;4124122;28;20030;-84
2022/09/26 07:15:33;;;;;;;6.15;1.20;;;11.20;76.20;;;;;;4137347;28;20046;-84
2022/09/26 07:17:33;;;;;;;4.43;1.25;;;11.20;76.20;;;;;;4137831;28;20027;-84
2022/09/26 07:19:34;;;;;;;2.47;1.13;;;11.40;76.40;;;;;;4111027;28;20030;-85
2022/09/26 07:21:35;;;;;;;5.85;1.30;;;11.30;76.40;;;;;;4138666;28;20034;-85
2022/09/26 07:23:35;;;;;;;4.22;1.25;;;11.40;76.50;;;;;;4122513;28;20437;-84
2022/09/26 07:25:38;;;;;;;7.32;1.58;;;11.40;76.40;;;;;;4141307;28;20061;-86
2022/09/26 07:27:39;;;;;;;6.70;1.50;;;11.50;76.40;;;;;;4121284;28;20023;-80
2022/09/26 07:29:40;;;;;;;4.95;1.85;;;11.50;76.20;;;;;;4138681;28;20037;-85
2022/09/26 07:31:40;;;;;;;6.82;1.40;;;11.50;76.10;;;;;;4117114;28;20035;-85
2022/09/26 07:33:41;;;;;;;5.20;1.58;;;11.60;76.00;;;;;;4133227;28;20400;-85
2022/09/26 07:35:43;;;;;;;6.80;1.50;;;11.50;76.00;;;;;;4134803;28;20820;-83
2022/09/26 07:37:44;;;;;;;3.92;1.20;;;11.50;75.80;;;;;;4134360;28;20018;-85
2022/09/26 07:39:45;;;;;;;6.45;1.30;;;11.60;75.80;;;;;;4119934;28;20034;-85
2022/09/26 07:41:46;;;;;;;5.38;1.20;;;11.60;75.70;;;;;;4135561;28;20057;-84
2022/09/26 07:43:47;;;;;;;4.85;1.10;;;11.70;76.00;;;;;;4136426;28;20089;-85
2022/09/26 07:50:28;;;;;;;6.18;1.40;;;11.70;75.30;;;;;;4134342;28;20023;-83
2022/09/26 07:52:29;;;;;;;4.43;1.10;;;11.70;75.20;;;;;;4138989;28;20018;-85
2022/09/26 07:54:30;;;;;;;7.53;1.83;;;11.70;75.00;;;;;;4136046;28;20479;-85
2022/09/26 07:56:33;;;;;;;4.63;1.48;;;11.60;74.90;;;;;;4134258;28;20026;-84
2022/09/26 07:58:37;;;;;;;3.70;1.10;;;11.70;75.00;;;;;;4119619;28;20031;-85
2022/09/26 08:00:39;;;;;;;4.70;1.23;;;11.60;74.80;;;;;;4136987;28;20034;-85
2022/09/26 08:02:45;;;;;;;6.13;1.25;;;11.60;74.80;;;;;;4138016;28;20929;-85
2022/09/26 08:04:46;;;;;;;5.70;1.10;;;11.70;74.70;;;;;;4104976;28;20023;-85
2022/09/26 08:06:47;;;;;;;4.28;1.40;;;11.70;74.60;;;;;;4135002;28;20024;-85
2022/09/26 08:08:52;;;;;;;4.75;1.05;;;11.80;74.70;;;;;;4136305;28;20080;-86
2022/09/26 08:10:53;;;;;;;4.63;1.50;;;11.80;74.50;;;;;;4118605;28;20051;-85
2022/09/26 08:12:55;;;;;;;4.07;1.20;;;11.70;74.50;;;;;;4120787;28;20019;-84
2022/09/26 08:14:56;;;;;;;6.22;1.30;;;11.80;74.50;;;;;;4134942;28;20037;-83
2022/09/26 08:16:57;;;;;;;4.90;1.67;;;11.80;74.40;;;;;;4119157;28;20102;-85
2022/09/26 08:18:58;;;;;;;5.75;1.75;;;11.80;74.30;;;;;;4135795;28;20499;-85
2022/09/26 08:21:00;;;;;;;4.53;1.15;;;11.80;74.40;;;;;;4135582;28;20030;-85
2022/09/26 08:23:01;;;;;;;5.57;1.38;;;11.70;74.20;;;;;;4128977;28;20038;-84
2022/09/26 08:25:05;;;;;;;8.00;1.50;;;11.70;74.10;;;;;;4121366;28;20038;-84
2022/09/26 08:27:06;;;;;;;5.13;1.67;;;11.70;74.00;;;;;;4132349;28;20030;-84
2022/09/26 08:29:11;;;;;;;3.58;1.20;;;11.80;74.10;;;;;;4133926;28;20065;-85
2022/09/26 08:31:12;;;;;;;5.60;1.30;;;11.70;74.00;;;;;;4137049;28;20033;-84
2022/09/26 08:33:13;;;;;;;6.55;1.40;;;11.80;74.10;;;;;;4120441;28;20031;-84
2022/09/26 08:35:14;;;;;;;3.97;1.55;;;11.80;74.00;;;;;;4137176;28;20018;-84
2022/09/26 08:37:15;;;;;;;3.13;1.48;;;11.70;73.80;;;;;;4133999;28;20053;-84
2022/09/26 08:39:16;;;;;;;2.58;1.50;;;11.70;73.70;;;;;;4135394;28;20038;-85
2022/09/26 08:41:43;;;;;;;3.65;1.63;;;11.70;73.70;;;;;;4133657;28;20074;-85
2022/09/26 08:44:24;;;;;;;1.85;1.00;;;11.70;73.90;;;;;;4134903;28;20026;-84
2022/09/26 08:46:48;;;;;;;2.45;1.23;;;11.70;73.80;;;;;;4089549;28;20116;-85
2022/09/26 08:48:50;;;;;;;;;;;11.80;73.90;;;;;;4121629;28;20038;-84
2022/09/26 08:50:58;;;;;;;2.55;1.20;;;11.80;74.00;;;;;;4133273;28;19906;-85
2022/09/26 08:53:15;;;;;;;7.22;1.52;;;11.90;73.70;;;;;;4132619;28;20034;-85
2022/09/26 08:55:26;;;;;;;5.65;1.63;;;11.80;73.70;;;;;;4123648;28;20033;-85
2022/09/26 08:57:41;;;;;;;5.57;1.40;;;11.90;73.70;;;;;;4136781;28;20034;-83
2022/09/26 08:59:45;;;;;;;3.88;1.60;;;11.80;73.60;;;;;;4123074;28;20023;-83
2022/09/26 09:01:47;;;;;;;7.60;1.63;;;11.80;73.50;;;;;;4137915;28;20042;-86
2022/09/26 09:03:52;;;;;;;7.72;1.65;;;11.80;73.50;;;;;;4135641;28;20041;-85
2022/09/26 09:06:04;;;;;;;2.28;1.42;;;11.90;73.40;;;;;;4134349;28;20045;-83
2022/09/26 09:08:21;;;;;;;7.63;1.70;;;11.80;73.30;;;;;;4133425;28;20035;-84
2022/09/26 09:10:40;;;;;;;5.68;1.60;;;11.80;73.30;;;;;;4118094;28;20015;-84
2022/09/26 09:13:13;;;;;;;4.45;1.60;;;11.80;73.20;;;;;;4132849;28;20021;-84
2022/09/26 09:15:45;;;;;;;7.38;1.92;;;11.80;73.30;;;;;;4137264;28;20046;-83
2022/09/26 09:17:45;;;;;;;3.70;1.42;;;11.80;73.30;;;;;;4138054;28;20022;-86
2022/09/26 09:20:01;;;;;;;3.60;1.67;;;11.90;73.30;;;;;;4133477;28;20118;-85
2022/09/26 09:22:04;;;;;;;4.35;2.00;;;11.80;73.30;;;;;;4131837;28;20041;-84
2022/09/26 09:24:26;;;;;;;2.65;1.70;;;11.80;73.40;;;;;;4134862;28;20542;-84
2022/09/26 09:26:40;;;;;;;5.53;1.60;;;11.70;73.30;;;;;;4135754;28;20038;-84
2022/09/26 09:29:04;;;;;;;11.85;2.55;;;11.70;73.40;;;;;;4114322;28;20035;-86
2022/09/26 09:31:10;;;;;;;5.75;1.92;;;11.80;73.60;;;;;;4127056;28;20037;-84
2022/09/26 09:33:18;;;;;;;3.88;1.73;;;11.80;73.70;;;;;;4131612;28;20038;-84
2022/09/26 09:35:33;;;;;;;5.13;2.13;;;11.80;73.70;;;;;;4131565;28;20053;-84
2022/09/26 09:37:42;;;;;;;4.68;2.00;;;11.80;73.80;;;;;;4133321;28;20109;-84
2022/09/26 09:39:46;;;;;;;8.75;2.03;;;11.80;73.90;;;;;;4126527;28;20510;-84
2022/09/26 09:41:55;;;;;;;4.05;1.67;;;11.80;73.90;;;;;;4132221;28;20246;-84
2022/09/26 09:43:59;;;;;;;5.80;1.92;;;11.80;74.00;;;;;;4131599;28;20031;-82
2022/09/26 09:46:11;;;;;;;5.80;2.08;;;11.80;74.00;;;;;;4136572;28;20026;-80
2022/09/26 09:48:13;;;;;;;6.05;2.45;;;11.80;74.00;;;;;;4101960;28;20567;-83
2022/09/26 09:50:21;;;;;;;6.50;2.53;;;11.80;74.10;;;;;;4136698;28;20030;-83
2022/09/26 09:52:31;;;;;;;6.65;2.10;;;11.80;74.10;;;;;;4138490;28;20046;-84
2022/09/26 09:55:08;;;;;;;5.68;2.05;;;11.80;74.00;;;;;;4137870;28;20175;-84
2022/09/26 09:57:26;;;;;;;7.18;2.20;;;11.80;74.10;;;;;;4135695;28;20058;-83
2022/09/26 09:59:53;;;;;;;3.30;1.90;;;11.80;74.10;;;;;;4136740;28;20042;-84
2022/09/26 10:02:18;;;;;;;6.15;1.80;;;11.90;74.10;;;;;;4115857;28;20022;-84
2022/09/26 10:04:43;;;;;;;9.50;2.42;;;11.90;74.10;;;;;;4131245;28;20034;-84
2022/09/26 10:06:44;;;;;;;4.18;2.00;;;11.90;74.00;;;;;;4096011;28;20177;-84
2022/09/26 10:08:46;;;;;;;7.57;2.13;;;11.90;73.80;;;;;;4137498;28;20010;-84
2022/09/26 10:11:07;;;;;;;4.85;1.88;;;11.90;73.80;;;;;;4139744;28;20087;-84
2022/09/26 10:13:09;;;;;;;4.07;2.28;;;11.90;73.80;;;;;;4126264;28;20061;-84
2022/09/26 10:15:28;;;;;;;8.27;2.13;;;11.90;73.70;;;;;;4107569;28;20031;-84
2022/09/26 10:17:30;;;;;;;5.78;2.38;;;11.90;73.80;;;;;;4126102;28;20081;-84
2022/09/26 10:19:36;;;;;;;6.75;1.77;;;12.00;73.80;;;;;;4095092;28;20529;-83
2022/09/26 10:21:44;;;;;;;5.85;1.98;;;12.00;74.60;;;;;;4116114;28;20026;-83
2022/09/26 10:23:50;;;;;;;5.65;2.08;;;11.90;73.80;;;;;;4132314;28;20061;-84
2022/09/26 10:26:01;;;;;;;5.10;2.33;;;12.00;73.90;;;;;;4137156;28;20091;-83
2022/09/26 10:28:04;;;;;;;3.40;2.08;;;12.00;73.90;;;;;;4113960;28;20078;-84
2022/09/26 10:30:18;;;;;;;4.97;2.13;;;12.00;74.00;;;;;;4121675;28;20090;-83
2022/09/26 10:32:19;;;;;;;5.45;2.10;;;12.00;74.00;;;;;;4120672;28;20102;-83
2022/09/26 10:34:29;;;;;;;6.47;2.38;;;12.10;74.00;;;;;;4120962;28;20114;-84
2022/09/26 10:36:32;;;;;;;6.15;2.55;;;12.00;73.90;;;;;;4116202;28;20513;-83
2022/09/26 10:38:32;;;;;;;5.10;2.00;;;12.10;73.80;;;;;;4103949;28;20055;-83
2022/09/26 10:40:47;;;;;;;5.57;2.05;;;12.20;73.80;;;;;;4133073;28;20689;-84
2022/09/26 10:42:47;;;;;;;3.55;1.98;;;12.10;73.70;;;;;;4136371;28;20019;-84
2022/09/26 10:44:49;;;;;;;9.00;2.20;;;12.10;73.60;;;;;;4132861;28;20096;-84
2022/09/26 10:46:53;;;;;;;3.92;1.85;;;12.20;73.50;;;;;;4114863;28;20039;-82
2022/09/26 10:48:56;;;;;;;3.88;2.05;;;12.20;73.40;;;;;;4129858;28;20503;-84
2022/09/26 10:51:00;;;;;;;3.90;2.13;;;12.20;73.30;;;;;;4129821;28;20062;-84
2022/09/26 10:53:08;;;;;;;5.30;2.10;;;12.30;73.30;;;;;;4117447;28;20026;-85
2022/09/26 10:55:14;;;;;;;4.05;1.88;;;12.20;73.10;;;;;;4116963;28;20041;-83
2022/09/26 10:57:25;;;;;;;5.35;2.38;;;12.20;73.10;;;;;;4134746;28;20050;-84
2022/09/26 10:59:31;;;;;;;5.60;2.10;;;12.20;73.00;;;;;;4135033;28;20023;-84
2022/09/26 11:01:41;;;;;;;3.53;1.90;;;12.30;73.00;;;;;;4137449;28;20038;-83
2022/09/26 11:03:44;;;;;;;4.18;2.20;;;12.30;72.90;;;;;;4117702;28;20019;-84
2022/09/26 11:05:56;;;;;;;5.63;2.17;;;12.30;72.80;;;;;;4115710;28;20031;-83